Time;durP1;ratioP1;P1;durP2;ratioP2;P2;SDS_P1;SDS_P2;PMS_P1;PMS_P2;Temp;Humidity;BMP_temperature;BMP_pressure;BME280_temperature;BME280_humidity;BME280_pressure;Samples;Min_cycle;Max_cycle;Signal;HPM_P1;HPM_P2
2022/01/02 00:01:00;;;;;;;7.97;7.28;;;;;;;9.91;69.96;95670.59;5016515;28;20649;-64
2022/01/02 00:03:31;;;;;;;7.85;7.22;;;;;;;9.92;69.79;95670.28;5017697;28;20183;-64
2022/01/02 00:06:01;;;;;;;7.70;7.10;;;;;;;9.94;69.56;95673.50;5017620;28;20195;-64
2022/01/02 00:08:28;;;;;;;8.13;7.43;;;;;;;9.95;69.87;95686.16;5017348;28;20188;-64
2022/01/02 00:10:59;;;;;;;7.80;7.20;;;;;;;9.96;70.10;95684.22;5016277;28;20531;-63
2022/01/02 00:13:32;;;;;;;8.02;7.32;;;;;;;9.96;69.42;95685.00;5016506;28;20206;-64
2022/01/02 00:16:04;;;;;;;8.23;7.53;;;;;;;9.99;69.91;95692.63;5026019;28;20244;-64
2022/01/02 00:18:33;;;;;;;7.88;7.18;;;;;;;10.02;69.92;95678.19;5018531;28;20198;-64
2022/01/02 00:21:03;;;;;;;7.45;6.85;;;;;;;10.05;69.91;95688.50;5036919;28;20343;-64
2022/01/02 00:23:33;;;;;;;8.40;7.80;;;;;;;10.05;70.01;95688.50;5019852;28;20213;-64
2022/01/02 00:26:05;;;;;;;8.07;7.45;;;;;;;10.04;69.48;95684.16;5036781;28;20201;-64
2022/01/02 00:28:33;;;;;;;7.40;6.80;;;;;;;10.05;69.94;95676.69;5036382;28;20225;-64
2022/01/02 00:31:00;;;;;;;7.85;7.25;;;;;;;10.05;69.69;95684.94;5036646;28;20201;-64
2022/01/02 00:33:27;;;;;;;7.70;7.10;;;;;;;10.03;69.34;95677.03;5036648;28;20186;-63
2022/01/02 00:35:54;;;;;;;8.23;7.63;;;;;;;10.02;69.81;95683.69;5019339;28;20194;-63
2022/01/02 00:38:22;;;;;;;8.10;7.50;;;;;;;10.02;69.12;95686.44;5036557;28;20352;-63
2022/01/02 00:40:50;;;;;;;8.43;7.78;;;;;;;10.03;69.80;95676.22;5019008;28;20266;-63
2022/01/02 00:43:34;;;;;;;8.15;7.50;;;;;;;10.05;69.65;95679.44;5019302;28;20194;-64
2022/01/02 00:46:05;;;;;;;7.78;7.18;;;;;;;10.06;69.39;95676.38;5018928;28;20229;-64
2022/01/02 00:48:33;;;;;;;8.05;7.45;;;;;;;10.07;69.69;95679.91;5018835;28;20194;-64
2022/01/02 00:51:04;;;;;;;7.50;6.90;;;;;;;10.09;69.58;95680.38;5036163;28;20194;-64
2022/01/02 00:53:34;;;;;;;8.20;7.50;;;;;;;10.09;69.64;95683.13;5019110;28;20205;-64
2022/01/02 00:56:02;;;;;;;7.68;7.07;;;;;;;10.08;69.65;95678.78;5035734;28;20198;-64
2022/01/02 00:58:35;;;;;;;7.80;7.20;;;;;;;10.07;69.12;95680.72;5018465;28;20206;-64
2022/01/02 01:01:06;;;;;;;7.68;7.07;;;;;;;10.07;69.35;95679.91;5036042;28;20198;-64
2022/01/02 01:03:33;;;;;;;7.13;6.53;;;;;;;10.08;69.32;95687.03;5019064;28;20190;-64
2022/01/02 01:06:04;;;;;;;7.00;6.45;;;;;;;10.08;69.42;95696.09;5035758;28;20189;-64
2022/01/02 01:08:31;;;;;;;7.45;6.85;;;;;;;10.07;69.62;95682.69;5035581;28;20506;-64
2022/01/02 01:11:00;;;;;;;6.90;6.30;;;;;;;10.08;69.30;95692.56;5019257;28;20216;-64
2022/01/02 01:13:27;;;;;;;7.40;6.80;;;;;;;10.06;69.72;95692.91;5018308;28;20615;-64
2022/01/02 01:15:55;;;;;;;6.90;6.30;;;;;;;10.07;69.65;95694.50;5035498;28;20272;-63
2022/01/02 01:18:23;;;;;;;6.78;6.28;;;;;;;10.08;69.09;95695.31;5018427;28;20207;-63
2022/01/02 01:20:51;;;;;;;7.07;6.57;;;;;;;10.07;69.58;95702.78;5035795;28;20632;-64
2022/01/02 01:23:18;;;;;;;7.95;7.35;;;;;;;10.07;69.32;95704.72;5035777;28;20187;-64
2022/01/02 01:25:46;;;;;;;7.38;6.78;;;;;;;10.07;69.52;95690.94;5018665;28;20294;-64
2022/01/02 01:28:14;;;;;;;7.43;6.85;;;;;;;10.07;68.66;95690.94;5018022;28;20198;-64
2022/01/02 01:30:41;;;;;;;6.85;6.35;;;;;;;10.07;68.56;95685.44;5018129;28;20208;-64
2022/01/02 01:33:09;;;;;;;6.68;6.07;;;;;;;10.08;69.27;95687.03;5035168;28;20641;-64
2022/01/02 01:35:36;;;;;;;6.20;5.80;;;;;;;10.07;69.19;95689.00;5035431;28;20194;-64
2022/01/02 01:38:03;;;;;;;7.05;6.45;;;;;;;10.08;69.11;95693.34;5035440;28;20307;-64
2022/01/02 01:40:34;;;;;;;6.80;6.20;;;;;;;10.09;68.45;95692.22;5035233;28;20193;-64
2022/01/02 01:43:03;;;;;;;6.20;5.70;;;;;;;10.09;68.65;95683.13;5017807;28;20198;-64
2022/01/02 01:45:30;;;;;;;6.57;6.07;;;;;;;10.10;68.87;95690.28;5018061;28;20206;-64
2022/01/02 01:47:59;;;;;;;6.88;6.35;;;;;;;10.11;68.32;95678.09;5035363;28;20175;-64
2022/01/02 01:50:30;;;;;;;6.10;5.60;;;;;;;10.14;68.01;95688.47;5017878;28;20210;-63
2022/01/02 01:52:57;;;;;;;5.97;5.55;;;;;;;10.16;68.12;95682.59;5018575;28;20200;-63
2022/01/02 01:55:24;;;;;;;6.15;5.75;;;;;;;10.15;68.97;95690.06;5035271;28;20186;-67
2022/01/02 01:57:51;;;;;;;6.03;5.63;;;;;;;10.15;68.40;95692.03;5035157;28;20221;-64
2022/01/02 02:00:21;;;;;;;6.60;6.10;;;;;;;10.13;67.85;95693.19;5035164;28;20208;-69
2022/01/02 02:02:48;;;;;;;5.80;5.35;;;;;;;10.12;67.62;95690.72;5017807;28;20203;-63
2022/01/02 02:05:15;;;;;;;6.13;5.63;;;;;;;10.14;67.84;95680.19;5017547;28;20209;-63
2022/01/02 02:07:45;;;;;;;6.03;5.53;;;;;;;10.13;67.98;95681.34;5034878;28;20186;-63
2022/01/02 02:10:16;;;;;;;5.72;5.32;;;;;;;10.15;67.98;95692.81;5034915;28;20212;-62
2022/01/02 02:12:44;;;;;;;6.18;5.68;;;;;;;10.16;67.88;95682.59;5017718;28;20233;-63
2022/01/02 02:15:12;;;;;;;6.35;5.85;;;;;;;10.13;68.03;95681.34;5034835;28;20291;-63
2022/01/02 02:17:39;;;;;;;6.45;5.95;;;;;;;10.14;68.31;95682.94;5035030;28;20218;-62
2022/01/02 02:20:15;;;;;;;6.38;5.93;;;;;;;10.15;68.02;95679.03;5017975;28;20257;-64
2022/01/02 02:22:45;;;;;;;6.50;6.03;;;;;;;10.16;67.93;95680.66;5019215;28;20226;-64
2022/01/02 02:25:12;;;;;;;6.25;5.78;;;;;;;10.16;67.76;95679.84;5034771;28;20633;-64
2022/01/02 02:27:39;;;;;;;6.18;5.78;;;;;;;10.15;67.77;95676.28;5017379;28;20206;-64
2022/01/02 02:30:07;;;;;;;6.18;5.78;;;;;;;10.13;67.63;95682.16;5017184;28;20202;-64
2022/01/02 02:32:34;;;;;;;5.97;5.50;;;;;;;10.16;67.70;95682.59;5017893;28;20205;-64
2022/01/02 02:35:01;;;;;;;5.75;5.28;;;;;;;10.17;67.89;95685.03;5035649;28;20277;-64
2022/01/02 02:37:30;;;;;;;6.10;5.63;;;;;;;10.20;67.69;95672.50;5034959;28;20238;-64
2022/01/02 02:39:57;;;;;;;5.82;5.43;;;;;;;10.19;67.52;95677.22;5034770;28;20256;-65
2022/01/02 02:42:33;;;;;;;6.28;5.88;;;;;;;10.18;67.52;95674.81;5019752;28;20611;-64
2022/01/02 02:48:58;;;;;;;6.22;5.72;;;;;;;10.18;67.94;95678.38;5038351;28;20522;-65
2022/01/02 02:50:45;;;;;;;6.20;5.70;;;;;;;10.16;68.08;95669.63;5021062;28;20287;-69
2022/01/02 02:53:14;;;;;;;6.00;5.57;;;;;;;10.16;67.76;95677.91;5021570;28;20194;-69
2022/01/02 02:55:45;;;;;;;6.60;6.03;;;;;;;10.15;67.27;95681.00;5038483;28;20187;-65
2022/01/02 02:58:38;;;;;;;6.43;5.93;;;;;;;10.14;67.75;95688.47;5021245;28;20218;-67
2022/01/02 03:01:04;;;;;;;5.97;5.53;;;;;;;10.14;67.82;95682.94;5038378;28;20233;-63
2022/01/02 03:03:32;;;;;;;6.53;6.03;;;;;;;10.15;67.56;95684.56;5038658;28;20182;-62
2022/01/02 03:05:58;;;;;;;6.78;6.28;;;;;;;10.13;68.03;95695.13;5038357;28;20183;-62
2022/01/02 03:08:28;;;;;;;5.93;5.47;;;;;;;10.11;68.33;95698.19;5038210;28;20179;-62
2022/01/02 03:10:55;;;;;;;6.70;6.10;;;;;;;10.10;67.87;95695.78;5020604;28;20194;-63
2022/01/02 03:13:22;;;;;;;6.68;6.18;;;;;;;10.10;67.98;95702.09;5037871;28;20598;-62
2022/01/02 03:15:48;;;;;;;6.40;5.90;;;;;;;10.09;66.88;95699.66;5020645;28;20229;-70
2022/01/02 03:18:15;;;;;;;6.20;5.70;;;;;;;10.12;67.40;95707.28;5038061;28;20215;-61
2022/01/02 03:20:42;;;;;;;6.53;6.03;;;;;;;10.12;68.03;95710.84;5037671;28;20261;-61
2022/01/02 03:23:09;;;;;;;6.50;6.00;;;;;;;10.15;67.99;95711.31;5020596;28;20191;-62
2022/01/02 03:25:37;;;;;;;6.90;6.38;;;;;;;10.15;67.51;95709.38;5021027;28;20198;-62
2022/01/02 03:28:04;;;;;;;7.35;6.75;;;;;;;10.17;67.33;95711.78;5019637;28;20434;-67
2022/01/02 03:30:31;;;;;;;6.22;5.72;;;;;;;10.16;67.36;95712.94;5020456;28;20190;-63
2022/01/02 03:32:58;;;;;;;5.38;4.97;;;;;;;10.22;67.40;95706.88;5038581;28;20197;-63
2022/01/02 03:35:25;;;;;;;6.00;5.50;;;;;;;10.28;67.12;95702.84;5020415;28;20213;-63
2022/01/02 03:37:52;;;;;;;6.30;5.70;;;;;;;10.30;67.62;95708.78;5019954;28;20221;-63
2022/01/02 03:40:18;;;;;;;6.20;5.70;;;;;;;10.34;67.27;95706.97;5037653;28;20193;-63
2022/01/02 03:42:47;;;;;;;6.57;6.07;;;;;;;10.32;67.15;95705.72;5037537;28;20273;-63
2022/01/02 03:45:13;;;;;;;6.50;6.00;;;;;;;10.29;67.17;95704.44;5037228;28;20623;-63
2022/01/02 03:47:40;;;;;;;6.57;6.07;;;;;;;10.28;67.24;95713.06;5037498;28;20182;-63
2022/01/02 03:50:08;;;;;;;6.40;5.90;;;;;;;10.27;66.85;95711.41;5037577;28;20183;-62
2022/01/02 03:52:35;;;;;;;6.95;6.35;;;;;;;10.25;67.23;95706.25;5036439;28;20194;-62
2022/01/02 03:55:02;;;;;;;7.00;6.40;;;;;;;10.26;66.91;95712.56;5037128;28;20197;-62
2022/01/02 03:57:28;;;;;;;6.85;6.35;;;;;;;10.24;67.05;95693.59;5037323;28;20202;-62
2022/01/02 03:59:57;;;;;;;7.00;6.50;;;;;;;10.23;67.60;95707.69;5037010;28;20626;-62
2022/01/02 04:02:23;;;;;;;6.28;5.78;;;;;;;10.21;66.84;95710.78;5037358;28;20186;-62
2022/01/02 04:04:50;;;;;;;6.60;6.10;;;;;;;10.19;67.13;95704.78;5019844;28;20195;-62
2022/01/02 04:07:17;;;;;;;5.97;5.57;;;;;;;10.20;66.94;95711.13;5037287;28;20206;-62
2022/01/02 04:09:44;;;;;;;6.38;5.80;;;;;;;10.19;67.20;95717.78;5019748;28;20194;-63
2022/01/02 04:12:11;;;;;;;6.35;5.88;;;;;;;10.19;67.45;95715.03;5037131;28;20198;-63
2022/01/02 04:14:37;;;;;;;6.20;5.70;;;;;;;10.20;67.42;95724.91;5036975;28;20190;-62
2022/01/02 04:17:06;;;;;;;6.10;5.53;;;;;;;10.16;66.96;95735.78;5036436;28;20246;-62
2022/01/02 04:19:33;;;;;;;6.50;6.00;;;;;;;10.15;67.16;95736.94;5036814;28;20194;-62
2022/01/02 04:21:59;;;;;;;5.85;5.45;;;;;;;10.16;66.71;95737.72;5019662;28;20202;-62
2022/01/02 04:24:26;;;;;;;6.47;5.97;;;;;;;10.17;67.15;95726.38;5019380;28;20205;-62
2022/01/02 04:26:53;;;;;;;6.60;6.10;;;;;;;10.18;67.47;95739.03;5019181;28;20198;-62
2022/01/02 04:29:20;;;;;;;6.45;5.95;;;;;;;10.17;67.22;95733.81;5036733;28;20178;-62
2022/01/02 04:31:46;;;;;;;6.90;6.30;;;;;;;10.17;67.40;95736.59;5019565;28;20219;-62
2022/01/02 04:34:14;;;;;;;7.13;6.20;;;;;;;10.15;67.13;95731.41;5019337;28;20214;-62
2022/01/02 04:36:41;;;;;;;6.15;5.65;;;;;;;10.15;67.25;95730.63;5019172;28;20298;-62
2022/01/02 04:39:08;;;;;;;6.18;5.72;;;;;;;10.15;67.15;95736.13;5036577;28;20252;-62
2022/01/02 04:41:35;;;;;;;6.82;6.32;;;;;;;10.16;67.63;95729.47;5036266;28;20194;-62
2022/01/02 04:44:03;;;;;;;6.78;6.28;;;;;;;10.16;67.51;95730.25;5036447;28;20191;-62
2022/01/02 04:46:30;;;;;;;6.70;6.20;;;;;;;10.14;67.45;95727.06;5019104;28;20202;-62
2022/01/02 04:48:56;;;;;;;7.13;6.53;;;;;;;10.15;67.52;95730.63;5036328;28;20194;-62
2022/01/02 04:51:24;;;;;;;6.68;6.07;;;;;;;10.14;67.54;95740.84;5036348;28;20187;-62
2022/01/02 04:53:51;;;;;;;7.55;6.95;;;;;;;10.12;67.61;95741.16;5036289;28;20214;-62
2022/01/02 04:56:18;;;;;;;6.85;6.35;;;;;;;10.12;67.54;95743.09;5018957;28;20194;-62
2022/01/02 04:58:46;;;;;;;8.20;7.60;;;;;;;10.12;67.65;95737.59;5036174;28;20206;-62
2022/01/02 05:01:14;;;;;;;7.65;7.05;;;;;;;10.12;67.82;95734.84;5036245;28;20179;-62
2022/01/02 05:03:41;;;;;;;7.40;6.82;;;;;;;10.12;68.15;95740.34;5035550;28;20182;-62
2022/01/02 05:06:08;;;;;;;7.20;6.60;;;;;;;10.09;67.57;95744.59;5035811;28;20191;-62
2022/01/02 05:08:37;;;;;;;7.55;6.95;;;;;;;10.09;67.38;95741.00;5035883;28;20216;-62
2022/01/02 05:11:04;;;;;;;7.30;6.70;;;;;;;10.08;67.99;95740.22;5036151;28;20197;-62
2022/01/02 05:13:31;;;;;;;6.93;6.43;;;;;;;10.10;67.58;95734.38;5018844;28;20209;-62
2022/01/02 05:15:58;;;;;;;6.75;6.25;;;;;;;10.10;68.03;95731.63;5035527;28;20661;-62
2022/01/02 05:18:24;;;;;;;7.22;6.63;;;;;;;10.10;68.06;95734.38;5035376;28;20562;-62
2022/01/02 05:20:51;;;;;;;6.75;6.15;;;;;;;10.11;67.73;95736.00;5018080;28;20205;-62
2022/01/02 05:23:19;;;;;;;7.40;6.70;;;;;;;10.11;67.75;95736.78;5035936;28;20191;-62
2022/01/02 05:25:47;;;;;;;6.55;5.93;;;;;;;10.10;68.27;95739.91;5035509;28;20290;-62
2022/01/02 05:28:14;;;;;;;7.30;6.70;;;;;;;10.08;68.15;95737.44;5035365;28;20189;-62
2022/01/02 05:30:41;;;;;;;7.03;6.45;;;;;;;10.06;68.06;95734.25;5018271;28;20202;-62
2022/01/02 05:33:08;;;;;;;6.28;5.78;;;;;;;10.06;68.33;95739.75;5035856;28;20197;-62
2022/01/02 05:35:35;;;;;;;6.00;5.60;;;;;;;10.07;67.86;95741.34;5035593;28;20202;-62
2022/01/02 05:38:02;;;;;;;6.18;5.68;;;;;;;10.07;67.88;95751.56;5035486;28;20206;-62
2022/01/02 05:40:31;;;;;;;6.07;5.57;;;;;;;10.06;67.98;95745.25;5018096;28;20202;-62
2022/01/02 05:43:00;;;;;;;6.13;5.72;;;;;;;10.08;67.75;95750.44;5018631;28;20202;-62
2022/01/02 05:45:27;;;;;;;6.15;5.65;;;;;;;10.08;67.79;95745.72;5018274;28;20204;-62
2022/01/02 05:47:53;;;;;;;6.15;5.55;;;;;;;10.08;67.66;95753.19;5035400;28;20186;-63
2022/01/02 05:50:20;;;;;;;5.85;5.45;;;;;;;10.08;67.74;95754.00;5017991;28;20202;-63
2022/01/02 05:52:47;;;;;;;6.30;5.85;;;;;;;10.08;67.94;95754.00;5018063;28;20629;-63
2022/01/02 05:55:14;;;;;;;6.00;5.50;;;;;;;10.08;67.91;95758.69;5017656;28;20208;-63
2022/01/02 05:57:41;;;;;;;6.07;5.57;;;;;;;10.05;68.11;95753.84;5035508;28;20194;-63
2022/01/02 06:00:10;;;;;;;7.03;6.53;;;;;;;10.05;68.04;95757.41;5035348;28;20225;-63
2022/01/02 06:02:37;;;;;;;6.20;5.70;;;;;;;10.06;67.81;95758.25;5035272;28;20187;-63
2022/01/02 06:05:06;;;;;;;6.80;6.20;;;;;;;10.08;67.77;95761.47;5035293;28;20259;-62
2022/01/02 06:07:33;;;;;;;7.00;6.40;;;;;;;10.07;67.46;95762.59;5035260;28;20197;-62
2022/01/02 06:10:00;;;;;;;6.82;6.25;;;;;;;10.07;67.47;95760.66;5035272;28;20183;-62
2022/01/02 06:12:27;;;;;;;7.00;6.45;;;;;;;10.07;67.99;95768.91;5017722;28;20213;-63
2022/01/02 06:14:54;;;;;;;6.20;5.80;;;;;;;10.06;67.83;95763.75;5034953;28;20218;-63
2022/01/02 06:17:22;;;;;;;6.55;5.95;;;;;;;10.06;67.60;95767.31;5020336;28;20194;-63
2022/01/02 06:19:49;;;;;;;6.45;5.95;;;;;;;10.05;67.26;95771.19;5022456;28;20217;-62
2022/01/02 06:22:16;;;;;;;5.90;5.40;;;;;;;10.04;67.48;95775.09;5021988;28;20194;-63
2022/01/02 06:24:43;;;;;;;5.80;5.32;;;;;;;10.03;66.93;95778.19;5038834;28;20205;-63
2022/01/02 06:27:09;;;;;;;5.55;5.15;;;;;;;10.02;67.24;95782.06;5039213;28;20191;-62
2022/01/02 06:29:36;;;;;;;5.78;5.38;;;;;;;10.03;67.14;95783.72;5038983;28;20195;-62
2022/01/02 06:32:04;;;;;;;6.00;5.50;;;;;;;10.04;67.35;95796.34;5038760;28;20187;-62
2022/01/02 06:34:32;;;;;;;5.20;4.80;;;;;;;10.03;66.98;95795.53;5021616;28;20233;-62
2022/01/02 06:36:59;;;;;;;5.45;5.00;;;;;;;10.03;67.44;95797.50;5038619;28;20182;-62
2022/01/02 06:39:25;;;;;;;6.20;5.70;;;;;;;10.02;67.22;95796.69;5021850;28;20218;-62
2022/01/02 06:41:52;;;;;;;6.43;5.93;;;;;;;10.03;67.45;95803.81;5021427;28;20542;-62
2022/01/02 06:44:19;;;;;;;5.97;5.47;;;;;;;10.04;67.14;95804.59;5021036;28;20198;-62
2022/01/02 06:46:46;;;;;;;5.13;4.63;;;;;;;10.06;67.45;95803.16;5038254;28;20626;-62
2022/01/02 06:49:13;;;;;;;5.55;5.15;;;;;;;10.09;66.79;95796.13;5038630;28;20186;-62
2022/01/02 06:51:41;;;;;;;5.10;4.70;;;;;;;10.10;67.12;95798.56;5021346;28;20197;-62
2022/01/02 06:54:08;;;;;;;4.88;4.57;;;;;;;10.11;66.99;95805.69;5038574;28;20190;-62
2022/01/02 06:56:34;;;;;;;4.97;4.65;;;;;;;10.12;67.13;95801.78;5038483;28;20190;-62
2022/01/02 06:59:01;;;;;;;5.22;4.82;;;;;;;10.15;66.96;95811.34;5021419;28;20210;-62
2022/01/02 07:01:28;;;;;;;5.82;5.32;;;;;;;10.16;67.46;95812.16;5021038;28;20209;-62
2022/01/02 07:03:55;;;;;;;5.45;5.05;;;;;;;10.18;67.22;95809.91;5038349;28;20197;-63
2022/01/02 07:06:22;;;;;;;5.70;5.30;;;;;;;10.18;67.28;95807.94;5020982;28;20209;-63
2022/01/02 07:08:50;;;;;;;7.35;6.75;;;;;;;10.19;67.26;95809.56;5020978;28;20205;-63
2022/01/02 07:11:18;;;;;;;6.40;5.88;;;;;;;10.20;67.35;95808.41;5021023;28;20210;-63
2022/01/02 07:13:44;;;;;;;6.15;5.65;;;;;;;10.20;66.80;95821.38;5038309;28;20215;-63
2022/01/02 07:16:11;;;;;;;6.00;5.40;;;;;;;10.19;67.04;95815.06;5037841;28;20562;-63
2022/01/02 07:18:38;;;;;;;6.13;5.63;;;;;;;10.21;66.79;95812.78;5037911;28;20202;-63
2022/01/02 07:21:05;;;;;;;6.28;5.78;;;;;;;10.21;67.39;95814.75;5020470;28;20214;-63
2022/01/02 07:23:31;;;;;;;5.45;5.05;;;;;;;10.22;67.30;95821.88;5037714;28;20210;-63
2022/01/02 07:26:00;;;;;;;4.93;4.53;;;;;;;10.25;66.74;95816.53;5037649;28;20551;-63
2022/01/02 07:28:29;;;;;;;5.70;5.13;;;;;;;10.29;67.19;95824.94;5037364;28;20197;-63
2022/01/02 07:30:56;;;;;;;5.28;4.82;;;;;;;10.30;66.84;95823.78;5037903;28;20191;-63
2022/01/02 07:33:22;;;;;;;5.20;4.80;;;;;;;10.26;66.87;95822.84;5037833;28;20182;-63
2022/01/02 07:35:49;;;;;;;5.03;4.72;;;;;;;10.28;66.52;95821.38;5037720;28;20190;-61
2022/01/02 07:38:16;;;;;;;5.63;5.22;;;;;;;10.29;67.00;95831.25;5037699;28;20197;-62
2022/01/02 07:40:43;;;;;;;6.55;5.95;;;;;;;10.30;67.31;95837.59;5020320;28;20191;-62
2022/01/02 07:43:11;;;;;;;5.97;5.38;;;;;;;10.31;66.59;95828.16;5037828;28;20191;-62
2022/01/02 07:45:38;;;;;;;6.97;5.90;;;;;;;10.34;66.89;95830.25;5019919;28;20195;-62
2022/01/02 07:48:05;;;;;;;6.22;5.72;;;;;;;10.35;66.79;95829.13;5020365;28;20194;-61
2022/01/02 07:50:31;;;;;;;6.15;5.65;;;;;;;10.34;66.88;95836.56;5037155;28;20189;-62
2022/01/02 07:52:58;;;;;;;6.45;5.85;;;;;;;10.32;66.68;95830.59;5037383;28;20190;-62
2022/01/02 07:55:25;;;;;;;6.65;6.13;;;;;;;10.33;66.92;95839.69;5037438;28;20197;-62
2022/01/02 07:57:52;;;;;;;6.20;5.70;;;;;;;10.34;66.99;95822.00;5019789;28;20602;-61
2022/01/02 08:00:21;;;;;;;6.38;5.88;;;;;;;10.35;66.60;95818.91;5019585;28;20217;-62
2022/01/02 08:02:47;;;;;;;6.82;6.22;;;;;;;10.40;66.29;95841.91;5019716;28;20206;-64
2022/01/02 08:05:14;;;;;;;6.18;5.68;;;;;;;10.44;66.16;95824.38;5020042;28;20324;-62
2022/01/02 08:07:41;;;;;;;6.75;6.25;;;;;;;10.47;66.39;95822.91;5037416;28;20187;-62
2022/01/02 08:10:09;;;;;;;6.65;6.07;;;;;;;10.47;66.08;95831.19;5037168;28;20272;-62
2022/01/02 08:12:36;;;;;;;6.70;6.10;;;;;;;10.47;66.52;95825.66;5036952;28;20197;-62
2022/01/02 08:15:03;;;;;;;6.68;6.07;;;;;;;10.49;66.26;95834.38;5019224;28;20264;-64
2022/01/02 08:17:31;;;;;;;6.05;5.55;;;;;;;10.50;65.91;95838.78;5036842;28;20519;-62
2022/01/02 08:19:58;;;;;;;6.00;5.60;;;;;;;10.50;65.65;95828.56;5037024;28;20217;-61
2022/01/02 08:22:25;;;;;;;5.65;5.20;;;;;;;10.54;65.86;95834.22;5036889;28;20210;-62
2022/01/02 08:24:52;;;;;;;5.63;5.13;;;;;;;10.53;65.41;95836.16;5019522;28;20198;-62
2022/01/02 08:27:19;;;;;;;6.38;5.88;;;;;;;10.54;65.73;95837.78;5019999;28;20563;-62
2022/01/02 08:29:45;;;;;;;6.72;6.13;;;;;;;10.55;65.42;95838.59;5019480;28;20206;-63
2022/01/02 08:32:12;;;;;;;6.18;5.68;;;;;;;10.57;65.67;95839.06;5019399;28;20206;-62
2022/01/02 08:34:40;;;;;;;6.07;5.55;;;;;;;10.56;65.35;95832.72;5036588;28;20200;-62
2022/01/02 08:37:07;;;;;;;5.55;5.15;;;;;;;10.56;65.30;95834.66;5019638;28;20210;-62
2022/01/02 08:39:34;;;;;;;6.10;5.60;;;;;;;10.59;65.19;95831.25;5035896;28;20281;-62
2022/01/02 08:42:01;;;;;;;5.53;5.03;;;;;;;10.60;64.67;95828.19;5036569;28;20213;-62
2022/01/02 08:44:27;;;;;;;5.57;5.07;;;;;;;10.66;64.99;95836.25;5036148;28;20611;-62
2022/01/02 08:46:54;;;;;;;5.45;4.95;;;;;;;10.69;64.91;95839.13;5018862;28;20201;-61
2022/01/02 08:49:22;;;;;;;5.53;5.03;;;;;;;10.72;64.30;95841.22;5036447;28;20186;-61
2022/01/02 08:51:50;;;;;;;5.95;5.45;;;;;;;10.73;64.47;95837.31;5019033;28;20205;-61
2022/01/02 08:54:17;;;;;;;5.68;5.18;;;;;;;10.76;64.08;95842.19;5019189;28;20563;-61
2022/01/02 08:56:44;;;;;;;5.45;4.95;;;;;;;10.75;63.93;95837.81;5036330;28;20193;-61
2022/01/02 08:59:11;;;;;;;6.25;5.65;;;;;;;10.78;64.27;95841.81;5018957;28;20214;-61
2022/01/02 09:01:38;;;;;;;5.50;5.00;;;;;;;10.79;64.54;95843.47;5036328;28;20187;-61
2022/01/02 09:04:05;;;;;;;6.07;5.57;;;;;;;10.81;64.04;95841.16;5018903;28;20209;-61
2022/01/02 09:06:31;;;;;;;5.65;5.15;;;;;;;10.80;63.81;95845.88;5035881;28;20189;-61
2022/01/02 09:09:00;;;;;;;5.90;5.40;;;;;;;10.82;63.76;95834.50;5018719;28;20213;-61
2022/01/02 09:11:27;;;;;;;5.15;4.75;;;;;;;10.83;63.64;95825.91;5036173;28;20205;-63
2022/01/02 09:13:53;;;;;;;5.50;5.00;;;;;;;10.86;63.71;95827.19;5035977;28;20194;-63
2022/01/02 09:16:20;;;;;;;5.50;5.10;;;;;;;10.87;63.43;95825.22;5035304;28;20245;-62
2022/01/02 09:18:47;;;;;;;5.70;5.30;;;;;;;10.93;63.53;95829.38;5018050;28;20634;-64
2022/01/02 09:21:14;;;;;;;5.60;5.10;;;;;;;10.98;62.97;95826.44;5035711;28;20217;-62
2022/01/02 09:23:41;;;;;;;4.55;4.25;;;;;;;11.01;62.48;95818.28;5035628;28;20198;-62
2022/01/02 09:26:09;;;;;;;5.68;5.18;;;;;;;11.05;62.24;95821.19;5035664;28;20182;-62
2022/01/02 09:28:36;;;;;;;4.80;4.40;;;;;;;11.04;61.63;95816.81;5018243;28;20210;-62
2022/01/02 09:31:02;;;;;;;4.47;4.10;;;;;;;11.05;61.62;95810.13;5035215;28;20178;-62
2022/01/02 09:33:29;;;;;;;4.65;4.25;;;;;;;11.08;61.76;95807.50;5035296;28;20196;-62
2022/01/02 09:35:56;;;;;;;5.03;4.57;;;;;;;11.12;62.06;95801.31;5018088;28;20203;-62
2022/01/02 09:38:23;;;;;;;4.90;4.50;;;;;;;11.20;62.11;95794.91;5018015;28;20197;-61
2022/01/02 09:40:50;;;;;;;5.10;4.60;;;;;;;11.32;61.85;95789.41;5035284;28;20206;-62
2022/01/02 09:43:18;;;;;;;5.25;4.75;;;;;;;11.66;62.58;95784.69;5035392;28;20194;-62
2022/01/02 09:45:46;;;;;;;4.38;4.00;;;;;;;12.04;62.00;95779.69;5035413;28;20205;-62
2022/01/02 09:48:13;;;;;;;5.00;4.60;;;;;;;12.43;60.03;95776.56;5017981;28;20204;-62
2022/01/02 09:50:40;;;;;;;4.10;3.80;;;;;;;12.69;59.07;95771.44;5017829;28;20191;-62
2022/01/02 09:53:08;;;;;;;4.93;4.50;;;;;;;12.93;58.46;95761.47;5034838;28;20206;-62
2022/01/02 09:55:35;;;;;;;4.47;4.13;;;;;;;13.10;57.45;95758.38;5034959;28;20182;-62
2022/01/02 09:58:04;;;;;;;4.20;3.90;;;;;;;13.12;57.03;95755.28;5017742;28;20198;-62
2022/01/02 10:00:32;;;;;;;4.68;4.25;;;;;;;13.33;58.73;95752.34;5034848;28;20222;-62
2022/01/02 10:03:00;;;;;;;4.70;4.30;;;;;;;13.31;57.75;95754.66;5034919;28;20178;-62
2022/01/02 10:05:28;;;;;;;4.00;3.70;;;;;;;13.33;58.64;95753.16;5034944;28;20183;-62
2022/01/02 10:07:56;;;;;;;5.50;4.80;;;;;;;13.24;58.55;95755.25;5035082;28;20210;-61
2022/01/02 10:10:32;;;;;;;4.40;4.10;;;;;;;13.18;59.10;95756.63;5034999;28;20205;-61
2022/01/02 10:13:00;;;;;;;4.75;4.35;;;;;;;13.11;59.71;95757.25;5034854;28;20260;-61
2022/01/02 10:15:28;;;;;;;4.00;3.70;;;;;;;13.14;58.14;95755.72;5034411;28;20234;-61
2022/01/02 10:18:04;;;;;;;4.22;3.80;;;;;;;13.16;59.02;95745.91;5034972;28;20190;-61
2022/01/02 10:20:34;;;;;;;3.95;3.65;;;;;;;13.19;57.90;95744.41;5034807;28;20202;-61
2022/01/02 10:23:03;;;;;;;3.92;3.45;;;;;;;13.01;57.00;95739.16;5017856;28;20206;-62
2022/01/02 10:25:41;;;;;;;3.75;3.45;;;;;;;12.92;58.88;95746.00;5034762;28;20183;-61
2022/01/02 10:28:19;;;;;;;3.75;3.45;;;;;;;12.86;58.69;95734.38;5034446;28;20602;-61
2022/01/02 10:30:46;;;;;;;4.05;3.70;;;;;;;12.86;58.05;95733.59;5034657;28;20193;-61
2022/01/02 10:33:15;;;;;;;3.13;2.92;;;;;;;12.82;57.35;95729.88;5034803;28;20190;-61
2022/01/02 10:35:42;;;;;;;3.00;2.80;;;;;;;12.69;59.09;95724.38;5017403;28;20197;-61
2022/01/02 10:38:15;;;;;;;3.17;2.97;;;;;;;12.59;57.96;95722.09;5034301;28;20183;-62
2022/01/02 10:40:43;;;;;;;3.20;3.00;;;;;;;12.60;59.41;95718.22;5016835;28;20218;-62
2022/01/02 10:43:11;;;;;;;3.28;3.08;;;;;;;12.57;57.84;95713.38;5035087;28;20186;-61
2022/01/02 10:45:40;;;;;;;3.35;3.15;;;;;;;12.52;59.17;95717.16;5034709;28;20206;-62
2022/01/02 10:48:09;;;;;;;3.47;3.17;;;;;;;12.48;58.54;95710.72;5034802;28;20187;-62
2022/01/02 10:50:38;;;;;;;2.90;2.70;;;;;;;12.47;58.57;95695.28;5017399;28;20212;-62
2022/01/02 10:53:13;;;;;;;2.88;2.67;;;;;;;12.52;59.16;95699.75;5035252;28;20583;-62
2022/01/02 10:55:40;;;;;;;3.45;3.25;;;;;;;12.52;56.98;95697.00;5034716;28;20186;-61
2022/01/02 10:58:08;;;;;;;3.15;2.85;;;;;;;12.56;58.46;95699.88;5034808;28;20277;-61
2022/01/02 11:00:35;;;;;;;3.13;2.83;;;;;;;12.56;57.50;95694.34;5017176;28;20222;-61
2022/01/02 11:03:04;;;;;;;3.08;2.70;;;;;;;12.51;57.28;95698.16;5019403;28;20201;-61
2022/01/02 11:05:31;;;;;;;2.67;2.45;;;;;;;12.48;58.39;95691.34;5038417;28;20236;-62
2022/01/02 11:08:00;;;;;;;3.60;2.92;;;;;;;12.59;59.69;95704.72;5038280;28;20197;-63
2022/01/02 11:10:28;;;;;;;3.63;3.33;;;;;;;12.67;58.15;95695.44;5020902;28;20221;-61
2022/01/02 11:12:56;;;;;;;3.30;3.10;;;;;;;12.65;57.31;95683.94;5038236;28;20202;-61
2022/01/02 11:15:24;;;;;;;3.50;2.90;;;;;;;12.65;58.67;95686.72;5037945;28;20281;-61
2022/01/02 11:17:51;;;;;;;3.25;3.00;;;;;;;12.85;59.71;95676.59;5038858;28;20186;-62
2022/01/02 11:20:20;;;;;;;3.30;3.10;;;;;;;13.15;57.94;95680.59;5038172;28;20229;-63
2022/01/02 11:22:57;;;;;;;3.38;3.08;;;;;;;13.53;59.03;95667.34;5020585;28;20206;-63
2022/01/02 11:25:32;;;;;;;3.25;3.05;;;;;;;13.82;56.41;95664.13;5037676;28;20197;-61
2022/01/02 11:28:00;;;;;;;3.40;3.05;;;;;;;14.04;56.20;95650.75;5037636;28;20190;-62
2022/01/02 11:30:41;;;;;;;2.72;2.53;;;;;;;14.03;54.25;95649.16;5020225;28;20213;-62
2022/01/02 11:33:10;;;;;;;2.92;2.67;;;;;;;14.11;55.59;95651.72;5020077;28;20213;-62
2022/01/02 11:35:38;;;;;;;3.00;2.80;;;;;;;14.39;55.42;95650.75;5020789;28;20206;-62
2022/01/02 11:38:06;;;;;;;3.40;3.10;;;;;;;14.44;52.71;95642.13;5020142;28;20198;-62
2022/01/02 11:40:59;;;;;;;3.28;3.05;;;;;;;14.17;53.95;95644.75;5037575;28;20211;-62